createdAt,value
2023-04-18T00:01:59.238Z,9.30
2023-04-18T00:04:26.214Z,9.25
2023-04-18T00:06:53.029Z,8.75
2023-04-18T00:09:22.574Z,11.07
2023-04-18T00:11:52.676Z,10.43
2023-04-18T00:14:19.618Z,8.98
2023-04-18T00:16:48.830Z,10.27
2023-04-18T00:19:19.594Z,10.10
2023-04-18T00:21:52.044Z,9.85
2023-04-18T00:24:18.832Z,9.90
2023-04-18T00:26:48.699Z,10.43
2023-04-18T00:29:18.050Z,10.15
2023-04-18T00:31:44.939Z,7.45
2023-04-18T00:34:12.170Z,8.45
2023-04-18T00:36:40.347Z,7.45
2023-04-18T00:39:07.203Z,8.43
2023-04-18T00:41:34.465Z,8.73
2023-04-18T00:44:01.209Z,10.25
2023-04-18T00:46:28.018Z,8.88
2023-04-18T00:48:54.911Z,9.15
2023-04-18T00:51:21.907Z,9.45
2023-04-18T00:53:50.477Z,8.80
2023-04-18T00:56:17.358Z,8.40
2023-04-18T00:58:44.312Z,8.80
2023-04-18T01:01:11.044Z,8.75
2023-04-18T01:03:37.947Z,8.63
2023-04-18T01:06:05.086Z,8.90
2023-04-18T01:08:32.240Z,8.48
2023-04-18T01:11:00.321Z,9.55
2023-04-18T01:13:27.142Z,8.77
2023-04-18T01:15:55.154Z,9.38
2023-04-18T01:18:22.101Z,8.52
2023-04-18T01:20:52.484Z,8.68
2023-04-18T01:23:20.188Z,8.35
2023-04-18T01:25:48.908Z,7.82
2023-04-18T01:28:16.921Z,8.15
2023-04-18T01:30:43.697Z,9.30
2023-04-18T01:33:10.680Z,9.30
2023-04-18T01:35:37.462Z,8.38
2023-04-18T01:38:04.220Z,9.00
2023-04-18T01:40:31.081Z,9.07
2023-04-18T01:43:04.017Z,9.30
2023-04-18T01:45:33.650Z,8.05
2023-04-18T01:48:02.531Z,9.02
2023-04-18T01:50:29.273Z,8.45
2023-04-18T01:52:58.205Z,7.95
2023-04-18T01:55:24.947Z,8.68
2023-04-18T01:58:01.791Z,8.90
2023-04-18T02:00:31.014Z,7.88
2023-04-18T02:02:58.654Z,8.80
2023-04-18T02:05:25.584Z,8.88
2023-04-18T02:07:52.315Z,8.25
2023-04-18T02:10:20.715Z,7.18
2023-04-18T02:12:47.478Z,9.38
2023-04-18T02:15:14.213Z,9.30
2023-04-18T02:17:42.467Z,8.07
2023-04-18T02:20:09.865Z,7.78
2023-04-18T02:22:37.189Z,8.45
2023-04-18T02:25:04.368Z,8.77
2023-04-18T02:27:31.155Z,7.82
2023-04-18T02:29:57.966Z,8.35
2023-04-18T02:32:24.860Z,9.25
2023-04-18T02:34:53.031Z,9.15
2023-04-18T02:37:19.827Z,7.43
2023-04-18T02:39:46.569Z,9.02
2023-04-18T02:42:13.317Z,7.53
2023-04-18T02:44:40.037Z,8.43
2023-04-18T02:47:06.725Z,9.10
2023-04-18T02:49:33.565Z,7.75
2023-04-18T02:52:01.881Z,7.88
2023-04-18T02:54:28.728Z,7.53
2023-04-18T02:56:58.322Z,8.25
2023-04-18T02:59:27.862Z,7.35
2023-04-18T03:01:57.364Z,7.90
2023-04-18T03:04:24.544Z,8.07
2023-04-18T03:06:56.893Z,8.27
2023-04-18T03:09:27.799Z,8.02
2023-04-18T03:11:54.850Z,9.23
2023-04-18T03:14:21.783Z,8.48
2023-04-18T03:16:48.681Z,8.00
2023-04-18T03:19:15.433Z,8.27
2023-04-18T03:21:42.395Z,8.82
2023-04-18T03:24:11.582Z,8.48
2023-04-18T03:26:41.599Z,8.52
2023-04-18T03:29:08.442Z,9.18
2023-04-18T03:31:42.533Z,8.70
2023-04-18T03:34:09.357Z,7.80
2023-04-18T03:36:36.220Z,7.63
2023-04-18T03:39:03.019Z,8.80
2023-04-18T03:41:29.704Z,7.30
2023-04-18T03:43:57.743Z,9.15
2023-04-18T03:46:24.648Z,8.55
2023-04-18T03:48:51.508Z,7.75
2023-04-18T03:51:18.285Z,7.75
2023-04-18T03:53:45.009Z,7.75
2023-04-18T03:56:12.044Z,7.47
2023-04-18T03:58:38.803Z,7.22
2023-04-18T04:01:06.975Z,8.68
2023-04-18T04:03:33.801Z,8.35
2023-04-18T04:06:00.746Z,8.98
2023-04-18T04:08:28.290Z,8.05
2023-04-18T04:10:55.387Z,9.20
2023-04-18T04:13:22.155Z,8.90
2023-04-18T04:15:51.560Z,7.40
2023-04-18T04:18:19.701Z,9.02
2023-04-18T04:20:46.468Z,9.10
2023-04-18T04:23:13.253Z,9.50
2023-04-18T04:25:40.042Z,9.73
2023-04-18T04:28:07.107Z,9.80
2023-04-18T04:30:33.870Z,10.07
2023-04-18T04:33:00.669Z,9.48
2023-04-18T04:35:29.314Z,9.55
2023-04-18T04:39:50.139Z,9.88
2023-04-18T04:42:19.922Z,9.30
2023-04-18T04:44:46.786Z,9.70
2023-04-18T04:47:13.603Z,8.73
2023-04-18T04:49:40.320Z,10.35
2023-04-18T04:52:07.040Z,9.43
2023-04-18T04:54:33.770Z,9.00
2023-04-18T04:57:01.901Z,8.93
2023-04-18T04:59:28.634Z,9.10
2023-04-18T05:01:55.391Z,9.50
2023-04-18T05:04:22.337Z,8.30
2023-04-18T05:06:49.210Z,8.80
2023-04-18T05:09:15.951Z,7.93
2023-04-18T05:11:42.691Z,8.25
2023-04-18T05:14:10.876Z,8.63
2023-04-18T05:16:37.737Z,9.23
2023-04-18T05:19:06.452Z,7.78
2023-04-18T05:21:33.176Z,9.27
2023-04-18T05:23:59.922Z,8.95
2023-04-18T05:26:27.932Z,8.65
2023-04-18T05:28:54.969Z,8.90
2023-04-18T05:31:40.657Z,8.30
2023-04-18T05:34:07.504Z,8.60
2023-04-18T05:36:34.499Z,8.40
2023-04-18T05:39:01.614Z,8.38
2023-04-18T05:41:28.478Z,7.40
2023-04-18T05:44:04.900Z,7.20
2023-04-18T05:46:46.947Z,6.57
2023-04-18T05:49:13.790Z,6.57
2023-04-18T05:51:40.633Z,8.18
2023-04-18T05:54:07.391Z,9.48
2023-04-18T05:56:39.280Z,7.97
2023-04-18T05:59:06.035Z,8.50
2023-04-18T06:01:32.956Z,8.85
2023-04-18T06:04:01.200Z,8.65
2023-04-18T06:06:28.148Z,8.50
2023-04-18T06:08:54.892Z,8.38
2023-04-18T06:11:23.883Z,7.82
2023-04-18T06:16:17.557Z,6.95
2023-04-18T06:18:47.634Z,6.97
2023-04-18T06:21:15.805Z,8.48
2023-04-18T06:23:42.814Z,7.77
2023-04-18T06:26:12.319Z,7.60
2023-04-18T06:28:39.121Z,7.57
2023-04-18T06:31:05.945Z,7.13
2023-04-18T06:33:33.456Z,8.30
2023-04-18T06:36:00.249Z,7.78
2023-04-18T06:38:28.431Z,7.70
2023-04-18T06:40:55.150Z,8.40
2023-04-18T06:43:21.958Z,7.82
2023-04-18T06:45:48.769Z,7.80
2023-04-18T06:48:15.814Z,8.25
2023-04-18T06:50:44.969Z,7.85
2023-04-18T06:53:14.179Z,7.65
2023-04-18T06:55:45.143Z,7.82
2023-04-18T06:58:15.459Z,5.50
2023-04-18T07:00:42.603Z,7.38
2023-04-18T07:03:11.256Z,8.13
2023-04-18T07:05:38.825Z,8.00
2023-04-18T07:08:05.715Z,6.15
2023-04-18T07:10:32.528Z,7.85
2023-04-18T07:13:00.584Z,5.82
2023-04-18T07:15:27.406Z,6.77
2023-04-18T07:17:54.208Z,6.80
2023-04-18T07:20:21.145Z,5.78
2023-04-18T07:22:48.380Z,6.82
2023-04-18T07:25:16.635Z,6.28
2023-04-18T07:27:43.432Z,5.43
2023-04-18T07:30:12.435Z,6.05
2023-04-18T07:35:06.450Z,5.80
2023-04-18T07:37:33.459Z,6.03
2023-04-18T07:40:00.229Z,6.07
2023-04-18T07:42:27.114Z,4.35
2023-04-18T07:44:56.917Z,5.82
2023-04-18T07:47:28.189Z,5.20
2023-04-18T07:49:56.307Z,4.90
2023-04-18T07:52:23.302Z,5.00
2023-04-18T07:54:50.546Z,5.93
2023-04-18T07:57:17.648Z,4.47
2023-04-18T07:59:44.384Z,4.93
2023-04-18T08:02:11.209Z,5.75
2023-04-18T08:04:39.586Z,5.13
2023-04-18T08:07:06.474Z,4.85
2023-04-18T08:09:33.233Z,5.82
2023-04-18T08:12:00.092Z,6.80
2023-04-18T08:14:26.840Z,5.63
2023-04-18T08:16:53.595Z,6.72
2023-04-18T08:19:23.513Z,5.28
2023-04-18T08:21:53.845Z,6.10
2023-04-18T08:24:20.780Z,6.32
2023-04-18T08:26:47.595Z,5.35
2023-04-18T08:29:14.606Z,5.60
2023-04-18T08:31:41.600Z,6.82
2023-04-18T08:34:08.384Z,6.20
2023-04-18T08:36:35.332Z,5.95
2023-04-18T08:39:03.454Z,4.68
2023-04-18T08:41:35.954Z,5.83
2023-04-18T08:44:08.140Z,6.18
2023-04-18T08:46:35.151Z,6.00
2023-04-18T08:49:04.223Z,5.82
2023-04-18T08:51:32.531Z,6.25
2023-04-18T08:54:00.047Z,6.15
2023-04-18T08:56:30.051Z,5.40
2023-04-18T08:59:01.440Z,4.80
2023-04-18T09:01:51.197Z,6.25
2023-04-18T09:04:34.510Z,5.40
2023-04-18T09:07:01.539Z,5.28
2023-04-18T09:09:28.335Z,5.80
2023-04-18T09:12:07.689Z,5.65
2023-04-18T09:14:36.870Z,5.93
2023-04-18T09:17:04.993Z,5.18
2023-04-18T09:19:32.163Z,6.03
2023-04-18T09:22:00.970Z,6.70
2023-04-18T09:24:31.883Z,5.60
2023-04-18T09:27:02.087Z,6.07
2023-04-18T09:29:45.601Z,5.45
2023-04-18T09:32:22.012Z,4.40
2023-04-18T09:34:48.925Z,5.20
2023-04-18T09:37:15.985Z,5.28
2023-04-18T09:39:44.201Z,5.38
2023-04-18T09:42:12.519Z,5.90
2023-04-18T09:45:00.277Z,5.95
2023-04-18T09:47:28.444Z,5.00
2023-04-18T09:49:59.788Z,5.40
2023-04-18T09:52:31.969Z,5.47
2023-04-18T09:55:02.755Z,4.85
2023-04-18T09:57:31.567Z,3.90
2023-04-18T10:00:08.848Z,5.05
2023-04-18T10:02:47.911Z,5.95
2023-04-18T10:07:43.777Z,5.38
2023-04-18T10:10:11.146Z,5.10
2023-04-18T10:12:38.587Z,5.03
2023-04-18T10:15:08.763Z,4.32
2023-04-18T10:17:52.513Z,5.05
2023-04-18T10:20:29.398Z,3.47
2023-04-18T10:22:59.024Z,4.15
2023-04-18T10:25:50.234Z,5.07
2023-04-18T10:28:17.546Z,5.07
2023-04-18T10:30:54.193Z,4.78
2023-04-18T10:33:30.512Z,4.95
2023-04-18T10:36:00.018Z,4.80
2023-04-18T10:38:36.493Z,5.18
2023-04-18T10:41:24.194Z,4.40
2023-04-18T10:44:19.304Z,5.15
2023-04-18T10:47:33.212Z,4.65
2023-04-18T10:50:05.927Z,4.05
2023-04-18T10:52:33.464Z,4.63
2023-04-18T10:55:17.035Z,5.45
2023-04-18T10:57:45.161Z,5.38
2023-04-18T11:00:14.320Z,6.00
2023-04-18T11:02:48.578Z,5.75
2023-04-18T11:05:24.659Z,5.10
2023-04-18T11:07:51.675Z,6.00
2023-04-18T11:10:19.846Z,6.03
2023-04-18T11:12:48.452Z,5.70
2023-04-18T11:15:17.423Z,6.38
2023-04-18T11:17:44.760Z,6.90
2023-04-18T11:20:13.356Z,5.75
2023-04-18T11:22:49.276Z,6.53
2023-04-18T11:25:16.695Z,6.95
2023-04-18T11:27:44.367Z,6.50
2023-04-18T11:30:11.961Z,6.38
2023-04-18T11:32:39.246Z,6.03
2023-04-18T11:35:08.968Z,6.13
2023-04-18T11:37:36.064Z,6.53
2023-04-18T11:40:05.749Z,7.25
2023-04-18T11:42:33.480Z,6.80
2023-04-18T11:45:00.252Z,6.30
2023-04-18T11:47:28.844Z,6.90
2023-04-18T11:49:57.276Z,6.78
2023-04-18T11:52:24.782Z,7.00
2023-04-18T11:54:51.717Z,6.50
2023-04-18T11:57:21.918Z,7.57
2023-04-18T11:59:50.252Z,7.15
2023-04-18T12:02:17.356Z,7.13
2023-04-18T12:04:52.020Z,7.55
2023-04-18T12:07:33.484Z,7.72
2023-04-18T12:10:00.380Z,7.13
2023-04-18T12:12:28.470Z,7.10
2023-04-18T12:15:02.598Z,6.63
2023-04-18T12:17:31.475Z,5.88
2023-04-18T12:20:01.958Z,7.93
2023-04-18T12:22:39.833Z,7.60
2023-04-18T12:25:14.821Z,8.13
2023-04-18T12:27:54.182Z,7.38
2023-04-18T12:30:22.403Z,8.02
2023-04-18T12:32:50.977Z,7.97
2023-04-18T12:35:18.606Z,8.40
2023-04-18T12:37:46.112Z,8.55
2023-04-18T12:40:13.258Z,8.25
2023-04-18T12:42:40.219Z,8.55
2023-04-18T12:45:10.378Z,8.43
2023-04-18T12:47:38.392Z,8.30
2023-04-18T12:50:07.290Z,9.53
2023-04-18T12:52:37.162Z,8.18
2023-04-18T12:55:06.661Z,9.20
2023-04-18T12:57:33.569Z,9.02
2023-04-18T13:00:00.328Z,9.00
2023-04-18T13:02:28.538Z,8.48
2023-04-18T13:04:55.901Z,8.45
2023-04-18T13:07:22.690Z,9.57
2023-04-18T13:09:49.480Z,8.57
2023-04-18T13:12:16.334Z,9.40
2023-04-18T13:14:43.121Z,9.02
2023-04-18T13:17:09.861Z,9.82
2023-04-18T13:19:37.884Z,9.88
2023-04-18T13:22:04.613Z,9.00
2023-04-18T13:24:31.493Z,10.07
2023-04-18T13:26:58.870Z,10.80
2023-04-18T13:29:27.155Z,10.13
2023-04-18T13:31:53.964Z,10.80
2023-04-18T13:34:20.682Z,11.15
2023-04-18T13:36:48.902Z,10.77
2023-04-18T13:39:16.594Z,10.18
2023-04-18T13:41:44.763Z,10.07
2023-04-18T13:44:11.500Z,11.50
2023-04-18T13:46:38.343Z,10.77
2023-04-18T13:49:05.060Z,11.55
2023-04-18T13:51:33.261Z,10.98
2023-04-18T13:54:01.408Z,11.10
2023-04-18T13:56:28.490Z,12.02
2023-04-18T13:58:55.846Z,11.20
2023-04-18T14:01:22.775Z,11.50
2023-04-18T14:03:49.717Z,11.52
2023-04-18T14:06:16.896Z,10.95
2023-04-18T14:08:44.104Z,11.10
2023-04-18T14:11:12.250Z,12.80
2023-04-18T14:13:39.017Z,12.00
2023-04-18T14:16:08.411Z,11.50
2023-04-18T14:18:35.310Z,11.55
2023-04-18T14:21:02.079Z,12.00
2023-04-18T14:23:34.220Z,12.73
2023-04-18T14:26:05.540Z,10.23
2023-04-18T14:28:33.640Z,12.60
2023-04-18T14:31:00.439Z,11.00
2023-04-18T14:33:27.363Z,13.15
2023-04-18T14:35:54.379Z,10.93
2023-04-18T14:38:21.158Z,10.57
2023-04-18T14:40:47.900Z,11.98
2023-04-18T14:43:14.688Z,11.45
2023-04-18T14:45:42.807Z,10.50
2023-04-18T14:48:10.317Z,9.30
2023-04-18T14:50:37.239Z,9.55
2023-04-18T14:53:04.098Z,11.20
2023-04-18T14:55:30.951Z,11.55
2023-04-18T14:57:57.721Z,13.32
2023-04-18T15:00:24.889Z,11.15
2023-04-18T15:02:53.396Z,12.95
2023-04-18T15:05:20.826Z,11.35
2023-04-18T15:07:47.557Z,11.70
2023-04-18T15:10:14.298Z,11.77
2023-04-18T15:12:42.604Z,11.10
2023-04-18T15:15:10.105Z,8.35
2023-04-18T15:17:36.838Z,10.15
2023-04-18T15:20:06.087Z,10.40
2023-04-18T15:22:36.049Z,11.35
2023-04-18T15:25:03.049Z,11.13
2023-04-18T15:27:29.810Z,10.98
2023-04-18T15:29:56.575Z,8.70
2023-04-18T15:32:23.470Z,10.52
2023-04-18T15:34:50.414Z,10.60
2023-04-18T15:37:24.522Z,10.50
2023-04-18T15:39:58.809Z,8.95
2023-04-18T15:42:25.580Z,9.38
2023-04-18T15:44:52.731Z,9.65
2023-04-18T15:47:19.496Z,10.75
2023-04-18T15:49:46.239Z,11.00
2023-04-18T15:52:13.017Z,9.90
2023-04-18T15:54:42.254Z,10.52
2023-04-18T15:57:09.210Z,11.25
2023-04-18T15:59:36.045Z,11.40
2023-04-18T16:02:03.237Z,9.50
2023-04-18T16:04:30.163Z,10.57
2023-04-18T16:06:56.881Z,10.48
2023-04-18T16:09:23.932Z,9.90
2023-04-18T16:11:53.053Z,10.98
2023-04-18T16:14:19.798Z,9.27
2023-04-18T16:16:46.558Z,9.13
2023-04-18T16:19:13.302Z,10.02
2023-04-18T16:21:40.066Z,9.88
2023-04-18T16:24:07.322Z,9.15
2023-04-18T16:26:34.097Z,9.45
2023-04-18T16:29:02.208Z,10.25
2023-04-18T16:31:29.133Z,9.93
2023-04-18T16:33:58.016Z,9.85
2023-04-18T16:38:51.937Z,8.95
2023-04-18T16:41:19.056Z,8.23
2023-04-18T16:43:45.892Z,8.98
2023-04-18T16:46:14.318Z,9.68
2023-04-18T16:48:41.304Z,9.55
2023-04-18T16:51:08.537Z,9.43
2023-04-18T16:53:35.352Z,9.27
2023-04-18T16:56:02.112Z,9.27
2023-04-18T16:58:30.184Z,9.95
2023-04-18T17:00:57.084Z,8.87
2023-04-18T17:03:34.538Z,9.52
2023-04-18T17:06:01.645Z,10.15
2023-04-18T17:08:28.679Z,9.50
2023-04-18T17:10:55.618Z,9.45
2023-04-18T17:13:22.461Z,10.05
2023-04-18T17:15:52.117Z,9.68
2023-04-18T17:18:19.225Z,9.55
2023-04-18T17:20:47.524Z,9.02
2023-04-18T17:23:14.436Z,8.95
2023-04-18T17:25:43.468Z,9.35
2023-04-18T17:28:10.196Z,9.20
2023-04-18T17:30:42.174Z,9.57
2023-04-18T17:33:10.560Z,9.32
2023-04-18T17:35:39.724Z,9.73
2023-04-18T17:38:12.738Z,8.82
2023-04-18T17:40:40.716Z,8.52
2023-04-18T17:43:07.571Z,10.10
2023-04-18T17:45:35.622Z,8.95
2023-04-18T17:48:02.459Z,9.90
2023-04-18T17:50:30.700Z,9.80
2023-04-18T17:52:57.452Z,9.82
2023-04-18T17:55:25.800Z,9.27
2023-04-18T17:57:52.649Z,9.18
2023-04-18T18:00:22.389Z,8.90
2023-04-18T18:02:49.275Z,9.15
2023-04-18T18:07:50.577Z,8.65
2023-04-18T18:10:18.180Z,9.95
2023-04-18T18:12:46.260Z,8.98
2023-04-18T18:15:13.082Z,10.33
2023-04-18T18:17:39.936Z,11.23
2023-04-18T18:20:08.664Z,10.65
2023-04-18T18:22:35.420Z,10.30
2023-04-18T18:25:02.921Z,10.00
2023-04-18T18:27:29.657Z,9.52
2023-04-18T18:29:57.702Z,10.20
2023-04-18T18:32:24.574Z,10.03
2023-04-18T18:34:51.329Z,10.15
2023-04-18T18:37:18.126Z,9.95
2023-04-18T18:39:44.906Z,9.00
2023-04-18T18:42:11.632Z,10.63
2023-04-18T18:44:38.363Z,9.55
2023-04-18T18:47:06.586Z,10.00
2023-04-18T18:49:33.335Z,10.60
2023-04-18T18:52:00.058Z,10.25
2023-04-18T18:54:26.769Z,10.02
2023-04-18T18:56:53.475Z,11.10
2023-04-18T18:59:20.210Z,9.75
2023-04-18T19:01:47.078Z,11.60
2023-04-18T19:04:15.418Z,10.52
2023-04-18T19:06:42.310Z,9.50
2023-04-18T19:09:09.091Z,10.55
2023-04-18T19:11:35.815Z,10.20
2023-04-18T19:14:02.585Z,9.55
2023-04-18T19:16:29.474Z,9.43
2023-04-18T19:18:56.234Z,10.32
2023-04-18T19:21:24.340Z,11.20
2023-04-18T19:23:51.091Z,10.30
2023-04-18T19:26:17.840Z,10.90
2023-04-18T19:28:45.280Z,10.48
2023-04-18T19:31:12.101Z,11.35
2023-04-18T19:33:38.983Z,12.07
2023-04-18T19:36:06.073Z,11.25
2023-04-18T19:38:34.133Z,10.40
2023-04-18T19:41:00.873Z,11.20
2023-04-18T19:43:29.487Z,11.23
2023-04-18T19:45:56.331Z,10.35
2023-04-18T19:48:23.117Z,11.50
2023-04-18T19:50:49.848Z,9.88
2023-04-18T19:53:16.827Z,9.57
2023-04-18T19:55:45.909Z,10.68
2023-04-18T19:58:32.361Z,9.20
2023-04-18T20:00:59.112Z,9.32
2023-04-18T20:03:26.100Z,7.65
2023-04-18T20:05:53.108Z,8.80
2023-04-18T20:08:19.856Z,9.68
2023-04-18T20:10:47.897Z,8.52
2023-04-18T20:13:14.642Z,8.23
2023-04-18T20:15:41.358Z,8.35
2023-04-18T20:18:08.150Z,8.52
2023-04-18T20:20:34.949Z,7.97
2023-04-18T20:23:01.765Z,8.15
2023-04-18T20:25:28.605Z,7.93
2023-04-18T20:27:56.703Z,8.02
2023-04-18T20:30:23.691Z,8.40
2023-04-18T20:32:50.498Z,7.38
2023-04-18T20:35:17.419Z,8.48
2023-04-18T20:37:44.103Z,8.10
2023-04-18T20:40:11.055Z,8.05
2023-04-18T20:42:37.998Z,8.35
2023-04-18T20:45:07.121Z,7.72
2023-04-18T20:47:33.962Z,7.95
2023-04-18T20:50:00.739Z,7.00
2023-04-18T20:52:27.486Z,7.93
2023-04-18T20:54:54.349Z,7.93
2023-04-18T20:57:21.097Z,7.90
2023-04-18T20:59:47.846Z,7.28
2023-04-18T21:02:18.936Z,7.40
2023-04-18T21:04:45.706Z,8.00
2023-04-18T21:07:12.567Z,7.63
2023-04-18T21:09:39.294Z,7.88
2023-04-18T21:12:06.587Z,7.43
2023-04-18T21:14:33.317Z,7.57
2023-04-18T21:17:00.258Z,8.63
2023-04-18T21:19:28.407Z,8.00
2023-04-18T21:21:55.265Z,7.60
2023-04-18T21:24:21.974Z,7.13
2023-04-18T21:26:48.697Z,7.32
2023-04-18T21:29:15.488Z,8.80
2023-04-18T21:31:42.279Z,6.80
2023-04-18T21:34:09.023Z,6.68
2023-04-18T21:36:37.291Z,8.73
2023-04-18T21:39:04.175Z,7.82
2023-04-18T21:41:30.912Z,7.85
2023-04-18T21:43:57.673Z,8.00
2023-04-18T21:46:25.577Z,8.30
2023-04-18T21:48:52.400Z,8.07
2023-04-18T21:51:19.121Z,7.05
2023-04-18T21:53:47.198Z,7.30
2023-04-18T21:56:14.022Z,7.63
2023-04-18T21:58:40.759Z,7.78
2023-04-18T22:01:07.667Z,6.32
2023-04-18T22:03:34.616Z,7.40
2023-04-18T22:06:01.825Z,8.18
2023-04-18T22:08:28.770Z,6.60
2023-04-18T22:10:58.589Z,7.57
2023-04-18T22:13:27.168Z,6.78
2023-04-18T22:15:53.959Z,7.63
2023-04-18T22:18:20.654Z,7.28
2023-04-18T22:20:47.606Z,7.88
2023-04-18T22:23:14.389Z,7.43
2023-04-18T22:25:41.162Z,7.40
2023-04-18T22:28:09.243Z,7.93
2023-04-18T22:30:36.016Z,7.97
2023-04-18T22:33:02.841Z,8.05
2023-04-18T22:35:29.623Z,7.63
2023-04-18T22:37:56.402Z,7.32
2023-04-18T22:40:23.143Z,7.97
2023-04-18T22:42:49.889Z,8.13
2023-04-18T22:45:18.444Z,8.27
2023-04-18T22:47:45.255Z,8.10
2023-04-18T22:50:12.344Z,7.93
2023-04-18T22:52:39.205Z,8.13
2023-04-18T22:55:06.561Z,9.00
2023-04-18T22:57:33.313Z,9.18
2023-04-18T23:00:00.095Z,8.32
2023-04-18T23:02:28.370Z,8.23
2023-04-18T23:04:56.838Z,7.80
2023-04-18T23:07:23.568Z,9.30
2023-04-18T23:09:50.309Z,6.97
2023-04-18T23:12:17.002Z,7.50
2023-04-18T23:14:43.724Z,9.38
2023-04-18T23:17:10.437Z,8.35
2023-04-18T23:19:38.754Z,7.85
2023-04-18T23:22:05.534Z,8.98
2023-04-18T23:24:32.276Z,6.82
2023-04-18T23:26:59.013Z,7.05
2023-04-18T23:29:25.743Z,7.93
2023-04-18T23:31:52.503Z,7.97
2023-04-18T23:34:19.362Z,8.32
2023-04-18T23:36:47.440Z,6.88
2023-04-18T23:39:14.198Z,7.70
2023-04-18T23:41:40.962Z,7.53
2023-04-18T23:44:07.734Z,8.25
2023-04-18T23:46:36.361Z,7.95
2023-04-18T23:51:30.164Z,7.85
2023-04-18T23:53:58.243Z,6.55
2023-04-18T23:56:24.978Z,6.87
2023-04-18T23:58:51.710Z,7.78
